Time;durP1;ratioP1;P1;durP2;ratioP2;P2;SDS_P1;SDS_P2;PMS_P1;PMS_P2;Temp;Humidity;BMP_temperature;BMP_pressure;BME280_temperature;BME280_humidity;BME280_pressure;Samples;Min_cycle;Max_cycle;Signal;HPM_P1;HPM_P2
2022/05/02 12:46:09;;;;;;;4.38;1.77;;;;;;;;;;4889506;24;20402;-65
2022/05/02 12:48:40;;;;;;;4.28;1.70;;;;;;;;;;4824291;29;20049;-65
2022/05/02 12:51:18;;;;;;;4.35;1.63;;;;;;;;;;4844501;29;20033;-66
2022/05/02 12:56:29;;;;;;;5.72;2.28;;;;;;;;;;4859139;29;20092;-65
2022/05/02 13:01:45;;;;;;;3.00;1.80;;;;;;;;;;4859204;29;20467;-63
2022/05/02 13:04:18;;;;;;;4.55;1.90;;;;;;;;;;4858283;29;20056;-65
2022/05/02 13:06:45;;;;;;;4.70;1.88;;;;;;;;;;4856698;29;20096;-63
2022/05/02 13:09:14;;;;;;;4.22;2.20;;;;;;;;;;4856927;29;20916;-63
2022/05/02 13:11:41;;;;;;;7.75;2.20;;;;;;;;;;4845857;29;20045;-62
2022/05/02 13:14:09;;;;;;;7.55;2.40;;;;;;;;;;4861245;29;20541;-61
2022/05/02 13:16:43;;;;;;;4.40;2.20;;;;;;;;;;4858843;29;20100;-62
2022/05/02 13:19:10;;;;;;;4.20;2.00;;;;;;;;;;4857017;29;20041;-64
2022/05/02 13:21:37;;;;;;;6.53;2.33;;;;;;;;;;4858464;29;20021;-67
2022/05/02 13:24:09;;;;;;;5.22;2.50;;;;;;;;;;4858289;29;20485;-65
2022/05/02 13:27:04;;;;;;;6.63;2.63;;;;;;;;;;4858006;29;20037;-68
2022/05/02 13:29:40;;;;;;;4.07;2.10;;;;;;;;;;4801188;29;20099;-66
2022/05/02 13:32:11;;;;;;;3.28;1.67;;;;;;;;;;4801405;29;20039;-66
2022/05/02 13:34:40;;;;;;;4.47;2.00;;;;;;;;;;4798716;29;20062;-68
2022/05/02 13:37:15;;;;;;;4.32;2.08;;;;;;;;;;4799799;29;20496;-64
2022/05/02 13:39:47;;;;;;;5.40;2.17;;;;;;;;;;4799393;29;20118;-64
2022/05/02 13:42:22;;;;;;;5.70;2.33;;;;;;;;;;4799971;29;20023;-66
2022/05/02 13:44:48;;;;;;;4.97;1.90;;;;;;;;;;4789265;29;20069;-67
2022/05/02 13:47:15;;;;;;;3.80;1.83;;;;;;;;;;4776466;30;20040;-68
2022/05/02 13:49:41;;;;;;;4.50;1.80;;;;;;;;;;4775648;30;20055;-65
2022/05/02 13:52:46;;;;;;;5.57;1.73;;;;;;;;;;4774499;29;20027;-63
2022/05/02 13:55:15;;;;;;;4.65;1.80;;;;;;;;;;4729060;30;20060;-66
2022/05/02 13:57:52;;;;;;;4.10;2.00;;;;;;;;;;4736181;30;20489;-66
2022/05/02 14:02:55;;;;;;;5.72;2.17;;;;;;;;;;4738564;30;20024;-63
2022/05/02 14:05:28;;;;;;;4.95;1.98;;;;;;;;;;4743866;30;20048;-64
2022/05/02 14:07:55;;;;;;;8.10;2.20;;;;;;;;;;4762367;30;20039;-66
2022/05/02 14:10:21;;;;;;;6.32;2.75;;;;;;;;;;4764080;30;20058;-67
2022/05/02 14:12:48;;;;;;;4.57;2.30;;;;;;;;;;4764345;30;20047;-66
2022/05/02 14:15:15;;;;;;;6.18;2.00;;;;;;;;;;4764948;30;20059;-66
2022/05/02 14:17:46;;;;;;;7.30;2.28;;;;;;;;;;4765142;30;20385;-71
2022/05/02 14:20:25;;;;;;;4.40;2.13;;;;;;;;;;4765467;30;20066;-70
2022/05/02 14:23:02;;;;;;;4.65;1.77;;;;;;;;;;4768294;30;20039;-68
2022/05/02 14:25:28;;;;;;;3.60;1.80;;;;;;;;;;4788022;29;20406;-71
2022/05/02 14:28:06;;;;;;;4.43;2.00;;;;;;;;;;4838166;29;20030;-65
2022/05/02 14:30:36;;;;;;;5.75;1.80;;;;;;;;;;4837529;29;20038;-66
2022/05/02 14:33:03;;;;;;;6.63;1.80;;;;;;;;;;4829928;29;20173;-70
2022/05/02 14:35:37;;;;;;;6.07;2.10;;;;;;;;;;4849855;29;20037;-68
2022/05/02 14:38:04;;;;;;;3.85;2.00;;;;;;;;;;4851319;29;20030;-68
2022/05/02 14:40:30;;;;;;;4.30;2.00;;;;;;;;;;4838866;29;20107;-65
2022/05/02 14:42:57;;;;;;;4.18;2.17;;;;;;;;;;4833031;29;20068;-66
2022/05/02 14:45:25;;;;;;;4.53;2.20;;;;;;;;;;4845931;29;20106;-65
2022/05/02 14:47:51;;;;;;;3.85;1.42;;;;;;;;;;4851996;29;20038;-67
2022/05/02 14:50:21;;;;;;;5.30;2.15;;;;;;;;;;4849276;29;20406;-71
2022/05/02 14:52:48;;;;;;;10.00;2.78;;;;;;;;;;4861006;29;20367;-67
2022/05/02 14:55:15;;;;;;;6.97;2.63;;;;;;;;;;4865443;29;20389;-67
2022/05/02 14:57:45;;;;;;;6.93;2.03;;;;;;;;;;4874695;29;20025;-69
2022/05/02 15:00:12;;;;;;;4.38;2.20;;;;;;;;;;4876240;29;20083;-66
2022/05/02 15:02:39;;;;;;;3.80;2.08;;;;;;;;;;4867034;29;20468;-65
2022/05/02 15:05:07;;;;;;;5.68;2.75;;;;;;;;;;4873563;29;20029;-68
2022/05/02 15:07:56;;;;;;;3.92;1.80;;;;;;;;;;4868194;29;20065;-65
2022/05/02 15:10:40;;;;;;;5.75;2.42;;;;;;;;;;4788602;29;20047;-67
2022/05/02 15:13:25;;;;;;;5.95;2.40;;;;;;;;;;4784781;30;20043;-66
2022/05/02 15:15:58;;;;;;;5.03;2.05;;;;;;;;;;4785296;30;20137;-67
2022/05/02 15:18:25;;;;;;;6.95;2.35;;;;;;;;;;4785501;30;20055;-66
2022/05/02 15:20:55;;;;;;;4.38;2.42;;;;;;;;;;4785521;30;20046;-68
2022/05/02 15:23:23;;;;;;;4.82;1.92;;;;;;;;;;4785540;30;20488;-65
2022/05/02 15:25:50;;;;;;;4.93;2.03;;;;;;;;;;4785931;30;20124;-66
2022/05/02 15:37:33;;;;;;;3.67;2.35;;;;;;;;;;4684699;30;20523;-67
2022/05/02 15:40:03;;;;;;;5.03;2.40;;;;;;;;;;4685386;30;20080;-66
2022/05/02 15:42:29;;;;;;;6.40;2.63;;;;;;;;;;4684549;30;20042;-66
2022/05/02 15:44:56;;;;;;;5.25;2.40;;;;;;;;;;4687059;30;20053;-67
2022/05/02 15:47:24;;;;;;;6.57;3.13;;;;;;;;;;4711660;30;20051;-67
2022/05/02 15:49:59;;;;;;;6.00;2.70;;;;;;;;;;4738784;30;20098;-68
2022/05/02 15:52:27;;;;;;;5.95;2.55;;;;;;;;;;4738608;30;20028;-68
2022/05/02 15:54:59;;;;;;;7.28;2.80;;;;;;;;;;4733591;30;20057;-66
2022/05/02 15:57:28;;;;;;;5.90;2.83;;;;;;;;;;4732354;30;20036;-68
2022/05/02 16:00:03;;;;;;;4.20;2.78;;;;;;;;;;4731897;30;20040;-66
2022/05/02 16:02:30;;;;;;;5.95;2.65;;;;;;;;;;4731900;30;20036;-67
2022/05/02 16:05:00;;;;;;;5.25;2.50;;;;;;;;;;4732058;30;20114;-66
2022/05/02 16:10:43;;;;;;;6.22;2.60;;;;;;;;;;4731213;30;20052;-65
2022/05/02 16:13:10;;;;;;;5.22;2.35;;;;;;;;;;4734730;30;20039;-66
2022/05/02 16:15:46;;;;;;;3.55;1.98;;;;;;;;;;4766610;30;20055;-68
2022/05/02 16:18:14;;;;;;;9.32;2.20;;;;;;;;;;4766542;30;20039;-66
2022/05/02 16:20:41;;;;;;;4.20;2.10;;;;;;;;;;4766816;30;20040;-66
2022/05/02 16:23:08;;;;;;;9.30;2.20;;;;;;;;;;4766512;30;20036;-66
2022/05/02 16:25:36;;;;;;;5.85;2.60;;;;;;;;;;4766733;30;20583;-66
2022/05/02 16:28:14;;;;;;;3.75;2.25;;;;;;;;;;4766800;30;20462;-66
2022/05/02 16:30:40;;;;;;;8.20;2.90;;;;;;;;;;4766735;30;20061;-66
2022/05/02 16:33:06;;;;;;;7.82;2.83;;;;;;;;;;4769718;30;20543;-65
2022/05/02 16:35:33;;;;;;;6.22;2.25;;;;;;;;;;4777716;30;20055;-67
2022/05/02 16:37:59;;;;;;;4.65;2.38;;;;;;;;;;4784497;30;20031;-66
2022/05/02 16:40:28;;;;;;;6.10;2.70;;;;;;;;;;4784322;30;20193;-65
2022/05/02 16:43:00;;;;;;;7.88;2.47;;;;;;;;;;4783713;29;20042;-65
2022/05/02 16:45:28;;;;;;;6.50;2.80;;;;;;;;;;4784235;30;20491;-68
2022/05/02 16:47:54;;;;;;;8.30;3.30;;;;;;;;;;4856420;29;20045;-65
2022/05/02 16:50:32;;;;;;;5.53;3.20;;;;;;;;;;4877969;29;20509;-65
2022/05/02 16:52:59;;;;;;;5.82;3.10;;;;;;;;;;4877804;29;20100;-65
2022/05/02 16:55:26;;;;;;;8.68;3.00;;;;;;;;;;4872329;29;20431;-64
2022/05/02 16:57:56;;;;;;;7.65;3.25;;;;;;;;;;4861450;29;20029;-65
2022/05/02 17:00:26;;;;;;;10.45;3.70;;;;;;;;;;4859914;29;20045;-67
2022/05/02 17:02:54;;;;;;;7.15;3.28;;;;;;;;;;4874616;29;20029;-67
2022/05/02 17:05:20;;;;;;;9.05;3.70;;;;;;;;;;4877381;29;20413;-65
2022/05/02 17:07:46;;;;;;;8.13;3.85;;;;;;;;;;4877477;29;20370;-66
2022/05/02 17:10:13;;;;;;;6.25;3.92;;;;;;;;;;4877540;29;20107;-67
2022/05/02 17:12:39;;;;;;;7.97;3.83;;;;;;;;;;4861059;29;20032;-66
2022/05/02 17:15:06;;;;;;;7.68;3.30;;;;;;;;;;4858963;29;20513;-64
2022/05/02 17:17:35;;;;;;;6.05;2.88;;;;;;;;;;4859112;29;20602;-63
2022/05/02 17:20:05;;;;;;;4.57;2.30;;;;;;;;;;4858866;29;20040;-67
2022/05/02 17:22:32;;;;;;;5.10;2.47;;;;;;;;;;4856983;29;20562;-64
2022/05/02 17:25:03;;;;;;;5.70;2.80;;;;;;;;;;4858788;29;20029;-64
2022/05/02 17:27:30;;;;;;;5.32;2.97;;;;;;;;;;4858320;29;20108;-63
2022/05/02 17:29:58;;;;;;;6.32;3.15;;;;;;;;;;4858471;29;20061;-66
2022/05/02 17:32:26;;;;;;;10.07;3.75;;;;;;;;;;4863337;29;20439;-66
2022/05/02 17:34:54;;;;;;;8.80;3.70;;;;;;;;;;4874366;29;20044;-64
2022/05/02 17:37:24;;;;;;;10.88;4.00;;;;;;;;;;4877132;29;20025;-62
2022/05/02 17:42:38;;;;;;;5.70;3.10;;;;;;;;;;4858845;29;20381;-64
2022/05/02 17:45:06;;;;;;;7.40;3.60;;;;;;;;;;4870430;29;20049;-64
2022/05/02 17:47:33;;;;;;;7.65;3.60;;;;;;;;;;4877237;29;20048;-64
2022/05/02 17:49:59;;;;;;;8.98;3.75;;;;;;;;;;4873395;29;20030;-66
2022/05/02 17:52:26;;;;;;;9.20;4.10;;;;;;;;;;4866929;29;20029;-64
2022/05/02 17:54:53;;;;;;;9.63;4.05;;;;;;;;;;4870044;29;20033;-67
2022/05/02 17:57:26;;;;;;;10.82;4.80;;;;;;;;;;4871070;29;20026;-65
2022/05/02 18:00:08;;;;;;;10.27;3.88;;;;;;;;;;4870058;29;20581;-65
2022/05/02 18:02:35;;;;;;;8.82;4.05;;;;;;;;;;4881110;29;20029;-66
2022/05/02 18:05:01;;;;;;;7.78;4.13;;;;;;;;;;4876899;29;20379;-66
2022/05/02 18:07:27;;;;;;;10.27;4.60;;;;;;;;;;4862293;29;20216;-66
2022/05/02 18:09:55;;;;;;;11.30;4.63;;;;;;;;;;4876792;29;20048;-65
2022/05/02 18:12:29;;;;;;;7.60;4.78;;;;;;;;;;4877480;29;20044;-65
2022/05/02 18:15:13;;;;;;;10.50;5.35;;;;;;;;;;4873580;29;20043;-66
2022/05/02 18:17:51;;;;;;;11.93;5.15;;;;;;;;;;4862660;29;20041;-65
2022/05/02 18:20:20;;;;;;;12.50;5.65;;;;;;;;;;4846235;29;20113;-66
2022/05/02 18:22:56;;;;;;;12.35;6.18;;;;;;;;;;4843275;29;20034;-66
2022/05/02 18:25:27;;;;;;;12.68;5.90;;;;;;;;;;4855044;29;20104;-66
2022/05/02 18:27:53;;;;;;;13.55;5.30;;;;;;;;;;4880324;29;20029;-66
2022/05/02 18:30:21;;;;;;;11.15;5.60;;;;;;;;;;4880122;29;20382;-67
2022/05/02 18:32:51;;;;;;;14.82;5.63;;;;;;;;;;4880213;29;20056;-68
2022/05/02 18:38:12;;;;;;;10.45;5.30;;;;;;;;;;4861760;29;20398;-69
2022/05/02 18:40:39;;;;;;;9.80;4.93;;;;;;;;;;4861784;29;20025;-67
2022/05/02 18:43:06;;;;;;;8.25;4.05;;;;;;;;;;4879991;29;20068;-68
2022/05/02 18:53:55;;;;;;;6.53;3.75;;;;;;;;;;4861214;29;20710;-66
2022/05/02 18:56:21;;;;;;;7.57;3.17;;;;;;;;;;4861381;29;20048;-66
2022/05/02 18:58:48;;;;;;;5.95;3.38;;;;;;;;;;4861272;29;20037;-66
2022/05/02 19:01:20;;;;;;;7.43;3.70;;;;;;;;;;4861153;29;20034;-67
2022/05/02 19:03:49;;;;;;;6.80;2.20;;;;;;;;;;4869634;29;20037;-67
2022/05/02 19:06:17;;;;;;;7.13;3.30;;;;;;;;;;4867638;29;20028;-65
2022/05/02 19:08:45;;;;;;;7.03;3.25;;;;;;;;;;4877457;29;20071;-66
2022/05/02 19:11:12;;;;;;;8.07;3.53;;;;;;;;;;4872930;29;20025;-67
2022/05/02 19:13:42;;;;;;;9.68;3.70;;;;;;;;;;4879268;29;20097;-67
2022/05/02 19:16:11;;;;;;;8.07;3.30;;;;;;;;;;4878808;29;20109;-67
2022/05/02 19:18:37;;;;;;;9.90;3.65;;;;;;;;;;4879290;29;20049;-67
2022/05/02 19:21:03;;;;;;;8.65;3.90;;;;;;;;;;4879419;29;20033;-68
2022/05/02 19:23:33;;;;;;;8.65;3.88;;;;;;;;;;4871360;29;20025;-68
2022/05/02 19:26:00;;;;;;;7.85;4.18;;;;;;;;;;4869131;29;20694;-67
2022/05/02 19:28:26;;;;;;;8.82;3.80;;;;;;;;;;4867305;29;20022;-68
2022/05/02 19:30:54;;;;;;;8.85;4.32;;;;;;;;;;4871565;29;20029;-65
2022/05/02 19:33:24;;;;;;;8.18;3.90;;;;;;;;;;4867918;29;20057;-66
2022/05/02 19:41:37;;;;;;;6.55;2.95;;;;;;;;;;4871813;29;20038;-66
2022/05/02 19:44:15;;;;;;;5.18;2.85;;;;;;;;;;4862299;29;20521;-63
2022/05/02 19:46:44;;;;;;;9.10;3.10;;;;;;;;;;4862436;29;20049;-63
2022/05/02 19:49:10;;;;;;;5.32;3.25;;;;;;;;;;4868035;29;20594;-64
2022/05/02 19:51:37;;;;;;;6.10;2.65;;;;;;;;;;4856079;29;20041;-63
2022/05/02 19:54:07;;;;;;;6.78;3.13;;;;;;;;;;4854318;29;20049;-63
2022/05/02 19:56:37;;;;;;;6.38;3.05;;;;;;;;;;4859816;29;20029;-62
2022/05/02 19:59:03;;;;;;;6.60;2.95;;;;;;;;;;4862105;29;20498;-63
2022/05/02 20:01:29;;;;;;;5.57;2.50;;;;;;;;;;4867351;29;20058;-63
2022/05/02 20:03:56;;;;;;;6.55;2.67;;;;;;;;;;4867595;29;20029;-63
2022/05/02 20:06:22;;;;;;;5.78;3.05;;;;;;;;;;4868859;29;20412;-62
2022/05/02 20:08:48;;;;;;;6.65;2.70;;;;;;;;;;4871813;29;20359;-63
2022/05/02 20:11:15;;;;;;;7.15;2.72;;;;;;;;;;4866272;29;20057;-63
2022/05/02 20:13:43;;;;;;;6.13;3.00;;;;;;;;;;4866472;29;20029;-63
2022/05/02 20:16:09;;;;;;;6.28;3.00;;;;;;;;;;4863808;29;20081;-62
2022/05/02 20:18:35;;;;;;;7.00;2.70;;;;;;;;;;4867421;29;20029;-63
2022/05/02 20:21:04;;;;;;;7.80;3.20;;;;;;;;;;4865864;29;20507;-63
2022/05/02 20:23:30;;;;;;;6.78;2.67;;;;;;;;;;4869808;29;20026;-62
2022/05/02 20:25:56;;;;;;;7.40;3.08;;;;;;;;;;4866981;29;20491;-62
2022/05/02 20:28:23;;;;;;;5.97;2.80;;;;;;;;;;4869198;29;20125;-62
2022/05/02 20:30:49;;;;;;;7.57;3.28;;;;;;;;;;4867263;29;20024;-62
2022/05/02 20:38:49;;;;;;;7.45;3.30;;;;;;;;;;4863971;29;20112;-62
2022/05/02 20:41:20;;;;;;;9.50;3.67;;;;;;;;;;4866278;29;20088;-62
2022/05/02 20:43:53;;;;;;;8.85;3.58;;;;;;;;;;4865959;29;20040;-62
2022/05/02 20:46:21;;;;;;;10.65;3.50;;;;;;;;;;4866589;29;20033;-62
2022/05/02 20:48:48;;;;;;;7.78;3.88;;;;;;;;;;4859748;29;20041;-64
2022/05/02 20:51:15;;;;;;;7.10;3.65;;;;;;;;;;4854592;29;20040;-62
2022/05/02 20:53:42;;;;;;;10.40;3.85;;;;;;;;;;4858011;29;20498;-61
2022/05/02 20:56:08;;;;;;;7.97;3.08;;;;;;;;;;4858978;29;20113;-60
2022/05/02 20:58:35;;;;;;;7.38;3.42;;;;;;;;;;4858945;29;20033;-61
2022/05/02 21:01:01;;;;;;;6.10;3.20;;;;;;;;;;4858555;29;20486;-62
2022/05/02 21:03:27;;;;;;;6.05;3.10;;;;;;;;;;4858332;29;20026;-62
2022/05/02 21:05:53;;;;;;;7.38;3.70;;;;;;;;;;4858419;29;20728;-62
2022/05/02 21:08:27;;;;;;;5.15;2.80;;;;;;;;;;4858310;29;20030;-62
2022/05/02 21:11:12;;;;;;;4.78;2.67;;;;;;;;;;4858416;29;20790;-63
2022/05/02 21:13:50;;;;;;;8.07;2.90;;;;;;;;;;4857677;29;20041;-62
2022/05/02 21:16:19;;;;;;;7.50;2.95;;;;;;;;;;4858281;29;20063;-62
2022/05/02 21:18:51;;;;;;;7.78;2.70;;;;;;;;;;4858318;29;20038;-61
2022/05/02 21:21:27;;;;;;;9.25;2.78;;;;;;;;;;4858359;29;20033;-62
2022/05/02 21:23:53;;;;;;;6.63;2.72;;;;;;;;;;4857994;29;20037;-62
2022/05/02 21:26:28;;;;;;;6.50;2.83;;;;;;;;;;4858347;29;20025;-63
2022/05/02 21:29:12;;;;;;;7.18;3.00;;;;;;;;;;4857815;29;20030;-63
2022/05/02 21:31:48;;;;;;;5.85;2.92;;;;;;;;;;4858232;29;20447;-62
2022/05/02 21:34:24;;;;;;;6.72;3.03;;;;;;;;;;4858245;29;20093;-62
2022/05/02 21:36:51;;;;;;;6.40;2.70;;;;;;;;;;4858622;29;20125;-63
2022/05/02 21:39:18;;;;;;;8.27;3.20;;;;;;;;;;4858261;29;20091;-62
2022/05/02 21:41:44;;;;;;;10.07;3.10;;;;;;;;;;4857754;29;20040;-62
2022/05/02 21:44:10;;;;;;;8.15;2.75;;;;;;;;;;4854323;29;20140;-62
2022/05/02 21:46:36;;;;;;;6.63;3.53;;;;;;;;;;4858300;29;20044;-64
2022/05/02 21:49:03;;;;;;;9.43;3.45;;;;;;;;;;4842657;29;20082;-62
2022/05/02 21:51:30;;;;;;;7.10;3.03;;;;;;;;;;4858467;29;20033;-63
2022/05/02 21:53:56;;;;;;;5.68;2.90;;;;;;;;;;4864615;29;20044;-62
2022/05/02 21:56:22;;;;;;;6.55;3.20;;;;;;;;;;4870431;29;20070;-62
2022/05/02 21:58:48;;;;;;;5.80;2.80;;;;;;;;;;4859503;29;20038;-62
2022/05/02 22:01:14;;;;;;;5.93;3.28;;;;;;;;;;4858028;29;20050;-64
2022/05/02 22:03:40;;;;;;;7.15;2.83;;;;;;;;;;4852390;29;20388;-61
2022/05/02 22:06:06;;;;;;;5.53;2.80;;;;;;;;;;4847271;29;20074;-62
2022/05/02 22:08:32;;;;;;;7.68;2.80;;;;;;;;;;4846674;29;20086;-64
2022/05/02 22:10:58;;;;;;;8.00;3.00;;;;;;;;;;4849916;29;20028;-63
2022/05/02 22:13:24;;;;;;;7.88;3.10;;;;;;;;;;4847217;29;20037;-63
2022/05/02 22:15:50;;;;;;;7.45;2.58;;;;;;;;;;4845653;29;20037;-63
2022/05/02 22:18:16;;;;;;;8.23;2.83;;;;;;;;;;4847423;29;20154;-62
2022/05/02 22:20:42;;;;;;;7.45;2.70;;;;;;;;;;4847216;29;20085;-63
2022/05/02 22:23:09;;;;;;;6.78;3.00;;;;;;;;;;4848833;29;20162;-62
2022/05/02 22:25:35;;;;;;;4.38;2.70;;;;;;;;;;4847550;29;20110;-62
2022/05/02 22:28:01;;;;;;;4.90;2.67;;;;;;;;;;4847486;29;20033;-62
